sim
Sign-in with your pilot id or email,
or register
Callsign
Passwort

Schedule Details

Flight Number: DLH460
Departure: Munich Airport (EDDM) at 10:55
Arrival: Miami International Airport (KMIA) at 21:55
Route: Lufthansa Passenger Schedule. Enter filed route here before submitting Pirep.

Weather Information
Getting current METAR information for EDDM 220420Z VRB02KT 2000 1000N R08L/0750V1300N R08R/P2000N BCFG FEW002 08/08 Q1014 TEMPO 1200
Getting current METAR information for KMIA 220353Z 05012G20KT 10SM BKN044 BKN060 28/21 A2999 RMK AO2 SLP155 T02780206 $

Schedule Frequency

Route Map